Time;durP1;ratioP1;P1;durP2;ratioP2;P2;SDS_P1;SDS_P2;PMS_P1;PMS_P2;Temp;Humidity;BMP_temperature;BMP_pressure;BME280_temperature;BME280_humidity;BME280_pressure;Samples;Min_cycle;Max_cycle;Signal;HPM_P1;HPM_P2
2023/01/15 00:00:00;;;;;;;1.67;0.63;;;;;;;11.10;100.00;99141.06;5027217;28;20247;-64
2023/01/15 00:02:28;;;;;;;1.27;0.63;;;;;;;11.10;100.00;99151.69;5026607;28;20216;-63
2023/01/15 00:04:55;;;;;;;2.13;0.60;;;;;;;11.02;100.00;99157.09;5025786;28;20261;-63
2023/01/15 00:07:23;;;;;;;1.70;0.70;;;;;;;11.02;100.00;99149.13;5028680;28;20247;-64
2023/01/15 00:09:51;;;;;;;3.03;0.60;;;;;;;11.05;100.00;99154.06;5031179;28;20658;-63
2023/01/15 00:12:21;;;;;;;1.83;0.77;;;;;;;11.08;100.00;99145.78;5033531;28;20298;-65
2023/01/15 00:14:49;;;;;;;2.03;0.60;;;;;;;11.12;100.00;99145.19;5036132;28;20238;-63
2023/01/15 00:17:27;;;;;;;1.63;0.73;;;;;;;11.10;100.00;99136.59;5033423;28;20232;-62
2023/01/15 00:19:55;;;;;;;1.87;0.50;;;;;;;11.08;100.00;99137.81;5031252;28;20860;-70
2023/01/15 00:22:23;;;;;;;2.97;0.70;;;;;;;11.03;100.00;99127.72;5032356;28;20219;-71
2023/01/15 00:27:39;;;;;;;1.37;0.50;;;;;;;11.10;100.00;99117.19;5031420;28;20210;-69
2023/01/15 00:30:09;;;;;;;2.90;0.50;;;;;;;11.08;100.00;99104.13;5033260;28;20212;-69
2023/01/15 00:32:38;;;;;;;2.20;0.57;;;;;;;11.12;100.00;99118.69;5030367;28;20337;-69
2023/01/15 00:35:08;;;;;;;2.93;0.47;;;;;;;11.17;100.00;99103.00;5033426;28;20955;-69
2023/01/15 00:37:35;;;;;;;1.50;0.53;;;;;;;11.15;100.00;99107.69;5028761;28;20364;-71
2023/01/15 00:40:04;;;;;;;0.90;0.50;;;;;;;11.15;100.00;99105.06;5032278;28;20255;-71
2023/01/15 00:42:32;;;;;;;1.10;0.60;;;;;;;11.17;100.00;99116.28;5038147;28;20215;-71
2023/01/15 00:45:06;;;;;;;1.37;0.40;;;;;;;11.19;100.00;99090.41;5032206;28;20226;-70
2023/01/15 00:47:34;;;;;;;1.53;0.53;;;;;;;11.27;100.00;99113.34;5032971;28;20204;-72
2023/01/15 00:50:03;;;;;;;1.73;0.60;;;;;;;11.24;100.00;99109.25;5031787;28;20214;-70
2023/01/15 00:52:31;;;;;;;2.47;0.47;;;;;;;11.26;100.00;99103.72;5032193;28;20957;-71
2023/01/15 00:54:59;;;;;;;0.50;0.40;;;;;;;11.26;100.00;99090.47;5031141;28;20243;-70
2023/01/15 00:57:27;;;;;;;1.10;0.50;;;;;;;11.28;100.00;99091.09;5032624;28;20245;-69
2023/01/15 00:59:54;;;;;;;1.30;0.43;;;;;;;11.27;100.00;99087.63;5033866;28;20222;-70
2023/01/15 01:02:22;;;;;;;1.30;0.60;;;;;;;11.29;100.00;99090.09;5032497;28;20212;-69
2023/01/15 01:04:50;;;;;;;1.67;0.50;;;;;;;11.31;100.00;99083.63;5034067;28;20313;-70
2023/01/15 01:07:19;;;;;;;0.80;0.50;;;;;;;11.28;100.00;99096.41;5026986;28;20234;-69
2023/01/15 01:09:46;;;;;;;0.83;0.50;;;;;;;11.32;100.00;99090.56;5027798;28;20885;-68
2023/01/15 01:12:14;;;;;;;0.73;0.40;;;;;;;11.32;100.00;99089.75;5028448;28;20214;-71
2023/01/15 01:14:42;;;;;;;1.00;0.40;;;;;;;11.29;100.00;99075.00;5029004;28;20212;-70
2023/01/15 01:17:11;;;;;;;1.07;0.50;;;;;;;11.32;100.00;99081.78;5030871;28;20219;-67
2023/01/15 01:19:39;;;;;;;1.03;0.40;;;;;;;11.31;100.00;99078.31;5027462;28;20306;-70
2023/01/15 01:22:06;;;;;;;1.30;0.50;;;;;;;11.29;100.00;99082.97;5029972;28;20609;-70
2023/01/15 01:24:35;;;;;;;1.97;0.57;;;;;;;11.33;100.00;99091.41;5029515;28;20211;-70
2023/01/15 01:27:03;;;;;;;1.03;0.50;;;;;;;11.34;100.00;99082.44;5030227;28;20200;-70
2023/01/15 01:29:31;;;;;;;1.10;0.70;;;;;;;11.32;100.00;99089.75;5030863;28;20270;-71
2023/01/15 01:31:59;;;;;;;1.17;0.43;;;;;;;11.36;100.00;99098.97;5029652;28;20219;-68
2023/01/15 01:34:26;;;;;;;0.77;0.53;;;;;;;11.34;100.00;99098.34;5031668;28;20225;-71
2023/01/15 01:36:54;;;;;;;1.60;0.60;;;;;;;11.38;100.00;99101.44;5028844;28;20551;-71
2023/01/15 01:39:22;;;;;;;1.53;0.60;;;;;;;11.36;100.00;99092.81;5033031;28;20219;-71
2023/01/15 01:41:51;;;;;;;1.83;0.60;;;;;;;11.38;100.00;99104.91;5033558;28;20222;-71
2023/01/15 01:44:56;;;;;;;1.07;0.50;;;;;;;11.41;100.00;99101.91;5032415;28;20218;-70
2023/01/15 01:47:26;;;;;;;0.87;0.40;;;;;;;11.32;100.00;99117.09;5023315;28;20207;-70
2023/01/15 01:50:00;;;;;;;0.80;0.40;;;;;;;11.40;100.00;99112.69;5029279;28;20548;-71
2023/01/15 01:52:32;;;;;;;1.23;0.47;;;;;;;11.46;100.00;99114.59;5031282;28;20204;-70
2023/01/15 01:55:02;;;;;;;1.03;0.53;;;;;;;11.52;100.00;99119.19;5028390;28;20304;-70
2023/01/15 01:57:32;;;;;;;0.90;0.30;;;;;;;11.48;100.00;99124.03;5023866;28;20234;-70
2023/01/15 02:00:03;;;;;;;1.13;0.47;;;;;;;11.50;100.00;99129.97;5028903;28;20222;-71
2023/01/15 02:02:31;;;;;;;2.03;0.50;;;;;;;11.54;100.00;99125.91;5028214;28;20236;-71
2023/01/15 02:04:59;;;;;;;1.63;0.53;;;;;;;11.57;100.00;99120.25;5032279;28;20204;-72
2023/01/15 02:07:30;;;;;;;0.87;0.37;;;;;;;11.59;100.00;99123.53;5027715;28;20290;-72
2023/01/15 02:09:58;;;;;;;2.27;0.60;;;;;;;11.66;100.00;99127.09;5030732;28;21163;-70
2023/01/15 02:12:32;;;;;;;1.90;0.60;;;;;;;11.67;100.00;99143.84;5031486;28;20208;-71
2023/01/15 02:15:07;;;;;;;1.57;0.50;;;;;;;11.74;100.00;99138.59;5026066;28;20293;-71
2023/01/15 02:17:43;;;;;;;0.87;0.40;;;;;;;11.79;100.00;99141.53;5024292;28;20209;-69
2023/01/15 02:20:22;;;;;;;1.83;0.60;;;;;;;11.84;100.00;99144.47;5023428;28;20291;-70
2023/01/15 02:23:04;;;;;;;1.10;0.30;;;;;;;11.74;97.98;99157.19;5028247;28;20212;-69
2023/01/15 02:25:43;;;;;;;2.53;0.20;;;;;;;11.70;95.01;99160.22;5027316;28;20215;-70
2023/01/15 02:28:19;;;;;;;0.27;0.10;;;;;;;11.69;93.24;99176.34;5027554;28;21140;-70
2023/01/15 02:30:53;;;;;;;0.63;0.10;;;;;;;11.67;91.68;99181.03;5026757;28;20361;-68
2023/01/15 02:33:27;;;;;;;1.47;0.17;;;;;;;11.66;89.60;99184.69;5028986;28;20748;-70
2023/01/15 02:35:59;;;;;;;0.50;0.10;;;;;;;11.61;87.83;99173.78;5029380;28;20295;-71
2023/01/15 02:38:32;;;;;;;1.20;0.10;;;;;;;11.58;87.43;99171.50;5028051;28;20286;-70
2023/01/15 02:41:03;;;;;;;0.10;0.10;;;;;;;11.57;86.91;99172.53;5030811;28;20223;-71
2023/01/15 02:43:36;;;;;;;2.27;0.20;;;;;;;11.56;86.77;99177.00;5025517;28;20207;-72
2023/01/15 02:46:06;;;;;;;0.33;0.10;;;;;;;11.54;86.76;99179.00;5027229;28;20588;-72
2023/01/15 02:48:38;;;;;;;0.00;0.00;;;;;;;11.54;86.90;99173.72;5025660;28;20208;-71
2023/01/15 02:51:09;;;;;;;0.23;0.10;;;;;;;11.52;86.72;99175.72;5027083;28;20211;-67
2023/01/15 02:53:41;;;;;;;0.10;0.10;;;;;;;11.46;86.25;99180.94;5027483;28;20585;-71
2023/01/15 02:56:13;;;;;;;0.10;0.10;;;;;;;11.48;85.71;99184.25;5026735;28;20340;-71
2023/01/15 02:58:44;;;;;;;1.20;0.10;;;;;;;11.43;85.33;99182.16;5020496;28;20248;-68
2023/01/15 03:01:17;;;;;;;0.20;0.20;;;;;;;11.44;84.98;99189.09;5023994;28;20207;-70
2023/01/15 03:03:54;;;;;;;0.63;0.10;;;;;;;11.42;84.69;99191.13;5026255;28;20208;-66
2023/01/15 03:06:33;;;;;;;0.00;0.00;;;;;;;11.37;84.37;99198.81;5027312;28;20832;-67
2023/01/15 03:09:01;;;;;;;0.30;0.10;;;;;;;11.36;84.42;99196.31;5026109;28;21923;-70
2023/01/15 03:11:33;;;;;;;0.30;0.10;;;;;;;11.36;84.31;99201.63;5023256;28;20210;-70
2023/01/15 03:14:07;;;;;;;0.10;0.00;;;;;;;11.32;84.06;99207.34;5022214;28;20302;-70
2023/01/15 03:16:36;;;;;;;0.57;0.20;;;;;;;11.35;84.55;99215.91;5023599;28;20215;-70
2023/01/15 03:19:13;;;;;;;0.87;0.20;;;;;;;11.27;83.57;99206.22;5022296;28;20281;-66
2023/01/15 03:21:50;;;;;;;0.93;0.10;;;;;;;11.29;82.98;99206.88;5018336;28;20338;-71
2023/01/15 03:24:21;;;;;;;0.20;0.10;;;;;;;11.25;82.62;99201.13;5024500;28;20204;-67
2023/01/15 03:26:49;;;;;;;0.10;0.10;;;;;;;11.23;82.86;99204.94;5024531;28;20208;-71
2023/01/15 03:29:20;;;;;;;1.10;0.03;;;;;;;11.14;81.38;99206.03;5025708;28;20855;-71
2023/01/15 03:31:48;;;;;;;0.93;0.10;;;;;;;11.16;81.92;99206.69;5021844;28;20226;-71
2023/01/15 03:34:16;;;;;;;0.43;0.10;;;;;;;11.12;81.69;99214.19;5025517;28;20204;-70
2023/01/15 03:36:44;;;;;;;0.20;0.10;;;;;;;11.12;81.61;99213.34;5026150;28;20467;-68
2023/01/15 03:39:12;;;;;;;0.10;0.10;;;;;;;11.09;81.61;99216.34;5028266;28;20791;-69
2023/01/15 03:41:51;;;;;;;0.10;0.10;;;;;;;11.06;81.45;99233.47;5032368;28;20212;-69
2023/01/15 03:44:32;;;;;;;0.40;0.10;;;;;;;11.06;81.98;99232.66;5029946;28;20291;-71
2023/01/15 03:47:10;;;;;;;0.00;0.00;;;;;;;11.08;81.86;99228.00;5026370;28;20218;-70
2023/01/15 03:49:47;;;;;;;0.13;0.10;;;;;;;11.06;81.51;99232.66;5028785;28;20222;-68
2023/01/15 03:52:19;;;;;;;0.10;0.00;;;;;;;11.01;81.77;99241.13;5029470;28;20826;-68
2023/01/15 03:54:53;;;;;;;0.47;0.20;;;;;;;10.98;81.34;99241.53;5031168;28;20220;-69
2023/01/15 03:57:29;;;;;;;0.30;0.10;;;;;;;11.00;81.15;99233.34;5029265;28;20238;-67
2023/01/15 04:00:01;;;;;;;0.20;0.03;;;;;;;10.97;79.94;99239.03;5028813;28;20227;-70
2023/01/15 04:02:30;;;;;;;0.50;0.10;;;;;;;10.92;79.69;99253.66;5025667;28;20212;-67
2023/01/15 04:04:59;;;;;;;0.00;0.00;;;;;;;10.92;79.42;99261.59;5028396;28;20217;-66
2023/01/15 04:07:27;;;;;;;0.83;0.10;;;;;;;10.91;79.34;99261.78;5030475;28;20242;-70
2023/01/15 04:09:55;;;;;;;0.03;0.03;;;;;;;10.90;79.18;99252.22;5026514;28;20208;-69
2023/01/15 04:12:22;;;;;;;2.13;0.10;;;;;;;10.90;79.07;99257.50;5025517;28;20238;-71
2023/01/15 04:14:50;;;;;;;0.47;0.13;;;;;;;10.89;78.87;99261.16;5031144;28;20302;-68
2023/01/15 04:17:19;;;;;;;0.40;0.10;;;;;;;10.86;78.99;99262.34;5027121;28;20208;-71
2023/01/15 04:19:47;;;;;;;2.03;0.10;;;;;;;10.83;79.01;99270.63;5029253;28;20698;-70
2023/01/15 04:22:15;;;;;;;0.30;0.10;;;;;;;10.85;79.33;99271.28;5024913;28;20575;-67
2023/01/15 04:24:43;;;;;;;0.50;0.10;;;;;;;10.82;79.31;99273.47;5020992;28;20227;-71
2023/01/15 04:27:10;;;;;;;0.47;0.30;;;;;;;10.78;79.72;99278.31;5026822;28;21027;-73
2023/01/15 04:29:38;;;;;;;0.13;0.10;;;;;;;10.76;80.02;99282.97;5027587;28;20215;-67
2023/01/15 04:32:06;;;;;;;1.20;0.20;;;;;;;10.76;80.74;99282.97;5026228;28;20458;-70
2023/01/15 04:34:35;;;;;;;3.03;0.40;;;;;;;10.78;80.86;99291.56;5025618;28;20204;-67
2023/01/15 04:37:03;;;;;;;0.60;0.20;;;;;;;10.73;81.42;99287.81;5032432;28;20211;-67
2023/01/15 04:39:31;;;;;;;0.10;0.10;;;;;;;10.73;81.66;99293.91;5026583;28;20238;-68
2023/01/15 04:44:44;;;;;;;15.40;1.70;;;;;;;10.75;81.13;99283.13;5023772;28;20205;-68
2023/01/15 04:47:12;;;;;;;0.30;0.20;;;;;;;10.71;81.57;99281.84;5028977;28;20623;-70
2023/01/15 04:49:41;;;;;;;0.40;0.10;;;;;;;10.71;80.84;99292.47;5031465;28;20703;-69
2023/01/15 04:52:09;;;;;;;1.37;0.00;;;;;;;10.69;80.58;99297.94;5031329;28;20227;-69
2023/01/15 04:54:37;;;;;;;0.77;0.10;;;;;;;10.67;80.62;99304.41;5029082;28;20238;-68
2023/01/15 04:57:05;;;;;;;0.40;0.10;;;;;;;10.60;81.20;99317.56;5031824;28;20209;-67
2023/01/15 04:59:33;;;;;;;1.50;0.10;;;;;;;10.63;81.22;99311.09;5035048;28;20230;-70
2023/01/15 05:02:01;;;;;;;0.20;0.10;;;;;;;10.63;80.51;99309.25;5030847;28;20213;-69
2023/01/15 05:04:33;;;;;;;0.17;0.10;;;;;;;10.66;80.49;99319.50;5028023;28;20861;-71
2023/01/15 05:07:04;;;;;;;0.20;0.20;;;;;;;10.68;79.62;99320.16;5027082;28;20231;-67
2023/01/15 05:09:32;;;;;;;0.27;0.10;;;;;;;10.67;79.47;99315.84;5023379;28;20281;-65
2023/01/15 05:12:00;;;;;;;0.43;0.17;;;;;;;10.62;79.70;99323.50;5028730;28;20218;-69
2023/01/15 05:14:28;;;;;;;0.57;0.20;;;;;;;10.61;79.71;99321.84;5030439;28;20202;-70
2023/01/15 05:16:56;;;;;;;0.20;0.20;;;;;;;10.62;79.70;99315.56;5026074;28;20211;-68
2023/01/15 05:19:23;;;;;;;0.10;0.10;;;;;;;10.63;79.85;99327.81;5024611;28;20222;-69
2023/01/15 05:21:51;;;;;;;0.60;0.23;;;;;;;10.61;79.82;99324.50;5025413;28;20215;-69
2023/01/15 05:24:20;;;;;;;1.40;0.10;;;;;;;10.60;79.36;99330.81;5025025;28;20213;-69
2023/01/15 05:26:48;;;;;;;0.10;0.10;;;;;;;10.59;79.27;99336.28;5026350;28;20212;-70
2023/01/15 05:29:16;;;;;;;0.10;0.10;;;;;;;10.58;79.06;99340.75;5025823;28;20213;-69
2023/01/15 05:31:44;;;;;;;0.00;0.00;;;;;;;10.55;78.72;99339.28;5026502;28;20310;-68
2023/01/15 05:34:13;;;;;;;0.10;0.10;;;;;;;10.52;78.22;99338.81;5027294;28;20219;-71
2023/01/15 05:36:40;;;;;;;0.10;0.10;;;;;;;10.44;78.21;99339.69;5025351;28;20213;-71
2023/01/15 05:39:09;;;;;;;0.13;0.10;;;;;;;10.42;78.72;99356.75;5029457;28;20208;-69
2023/01/15 05:41:50;;;;;;;0.33;0.10;;;;;;;10.42;78.66;99340.84;5023930;28;20234;-70
2023/01/15 05:44:21;;;;;;;0.20;0.10;;;;;;;10.35;78.39;99346.03;5025937;28;20335;-68
2023/01/15 05:46:50;;;;;;;0.43;0.23;;;;;;;10.36;78.62;99341.56;5025515;28;20207;-71
2023/01/15 05:49:20;;;;;;;0.47;0.20;;;;;;;10.36;78.60;99353.00;5028826;28;20202;-71
2023/01/15 05:51:48;;;;;;;0.27;0.20;;;;;;;10.35;78.70;99361.94;5027474;28;20608;-71
2023/01/15 05:54:18;;;;;;;0.87;0.10;;;;;;;10.32;78.85;99372.03;5029569;28;20605;-69
2023/01/15 05:56:47;;;;;;;0.10;0.10;;;;;;;10.28;79.09;99360.97;5023788;28;20686;-68
2023/01/15 05:59:16;;;;;;;0.57;0.20;;;;;;;10.29;78.91;99359.16;5022698;28;20232;-71
2023/01/15 06:01:44;;;;;;;0.60;0.20;;;;;;;10.17;78.85;99351.59;5022047;28;20228;-69
2023/01/15 06:04:13;;;;;;;0.20;0.10;;;;;;;10.08;79.42;99355.22;5023351;28;20212;-70
2023/01/15 06:06:42;;;;;;;1.20;0.47;;;;;;;9.98;80.37;99365.19;5021752;28;20317;-71
2023/01/15 06:09:10;;;;;;;2.57;0.53;;;;;;;9.89;81.08;99363.56;5028944;28;20201;-71
2023/01/15 06:11:38;;;;;;;0.40;0.20;;;;;;;9.92;81.20;99371.19;5024535;28;20217;-71
2023/01/15 06:14:08;;;;;;;0.80;0.23;;;;;;;9.96;81.57;99380.44;5026555;28;20213;-70
2023/01/15 06:16:36;;;;;;;0.50;0.20;;;;;;;9.90;82.10;99375.00;5025600;28;20217;-70
2023/01/15 06:19:06;;;;;;;0.57;0.13;;;;;;;9.92;82.29;99395.03;5023842;28;20237;-71
2023/01/15 06:21:35;;;;;;;0.90;0.20;;;;;;;9.97;81.48;99400.63;5024663;28;22182;-70
2023/01/15 06:24:04;;;;;;;2.33;0.20;;;;;;;9.99;80.99;99409.22;5025971;28;20728;-69
2023/01/15 06:26:32;;;;;;;1.33;0.17;;;;;;;10.05;80.51;99408.53;5024450;28;20213;-71
2023/01/15 06:28:59;;;;;;;0.80;0.40;;;;;;;10.02;80.41;99408.91;5023457;28;23152;-68
2023/01/15 06:31:28;;;;;;;0.20;0.17;;;;;;;10.05;80.10;99413.00;5023003;28;20201;-70
2023/01/15 06:33:56;;;;;;;3.43;0.43;;;;;;;10.06;79.83;99404.06;5023215;28;20209;-66
2023/01/15 06:36:26;;;;;;;0.87;0.33;;;;;;;10.07;79.70;99422.44;5021425;28;20832;-66
2023/01/15 06:38:54;;;;;;;0.30;0.20;;;;;;;10.02;80.29;99414.19;5025780;28;20220;-70
2023/01/15 06:47:20;;;;;;;0.30;0.20;;;;;;;9.87;80.32;99394.69;5026315;28;20208;-71
2023/01/15 06:49:50;;;;;;;1.53;0.13;;;;;;;9.74;81.68;99399.69;5024620;28;20236;-69
2023/01/15 06:52:18;;;;;;;0.00;0.00;;;;;;;9.72;82.23;99405.16;5028967;28;20472;-71
2023/01/15 06:54:46;;;;;;;2.03;0.40;;;;;;;9.78;81.66;99401.81;5034820;28;20236;-68
2023/01/15 06:57:13;;;;;;;1.23;0.10;;;;;;;9.84;81.78;99407.44;5027689;28;20215;-70
2023/01/15 06:59:41;;;;;;;0.50;0.10;;;;;;;9.84;81.45;99407.44;5033588;28;20229;-69
2023/01/15 07:02:11;;;;;;;0.20;0.10;;;;;;;9.85;81.44;99406.47;5034488;28;20223;-71
2023/01/15 07:04:39;;;;;;;0.70;0.27;;;;;;;9.78;80.81;99416.88;5028973;28;20693;-68
2023/01/15 07:07:06;;;;;;;0.93;0.20;;;;;;;9.75;81.14;99418.06;5026906;28;20254;-68
2023/01/15 07:09:34;;;;;;;1.97;0.30;;;;;;;9.71;80.39;99432.63;5023432;28;20875;-68
2023/01/15 07:12:02;;;;;;;0.60;0.23;;;;;;;9.71;79.46;99442.38;5022241;28;20286;-68
2023/01/15 07:14:30;;;;;;;0.70;0.17;;;;;;;9.60;79.40;99461.22;5031067;28;20201;-70
2023/01/15 07:16:58;;;;;;;1.77;0.20;;;;;;;9.56;79.48;99465.22;5027305;28;20213;-71
2023/01/15 07:19:28;;;;;;;0.33;0.20;;;;;;;9.53;79.49;99463.72;5026756;28;21037;-71
2023/01/15 07:21:56;;;;;;;1.10;0.20;;;;;;;9.49;79.84;99459.78;5027574;28;20234;-68
2023/01/15 07:24:23;;;;;;;0.20;0.10;;;;;;;9.53;79.46;99470.84;5029449;28;20223;-70
2023/01/15 07:26:51;;;;;;;1.47;0.23;;;;;;;9.57;78.86;99477.47;5025399;28;20284;-70
2023/01/15 07:29:19;;;;;;;3.30;0.30;;;;;;;9.51;78.82;99478.09;5024985;28;20210;-68
2023/01/15 07:31:46;;;;;;;0.30;0.20;;;;;;;9.54;78.92;99485.72;5031743;28;20847;-69
2023/01/15 07:34:14;;;;;;;2.10;0.30;;;;;;;9.54;79.11;99488.38;5029865;28;20213;-71
2023/01/15 07:36:43;;;;;;;0.57;0.20;;;;;;;9.58;79.62;99490.53;5027508;28;20220;-71
2023/01/15 07:39:11;;;;;;;1.03;0.30;;;;;;;9.57;79.94;99488.06;5023713;28;21097;-70
2023/01/15 07:50:04;;;;;;;1.23;0.20;;;;;;;9.52;78.65;99495.63;5024009;28;20324;-69
2023/01/15 07:52:33;;;;;;;0.43;0.20;;;;;;;9.54;78.35;99509.53;5022595;28;20212;-69
2023/01/15 07:55:02;;;;;;;0.50;0.20;;;;;;;9.59;78.17;99507.22;5026149;28;20603;-69
2023/01/15 07:57:31;;;;;;;1.00;0.20;;;;;;;9.61;77.41;99510.53;5022213;28;20236;-67
2023/01/15 07:59:58;;;;;;;1.20;0.50;;;;;;;9.54;76.63;99517.47;5022491;28;20216;-66
2023/01/15 08:02:27;;;;;;;0.30;0.20;;;;;;;9.52;76.59;99512.34;5021132;28;20238;-66
2023/01/15 08:04:54;;;;;;;0.17;0.17;;;;;;;9.49;76.10;99514.50;5024615;28;20623;-67
2023/01/15 08:07:22;;;;;;;0.17;0.10;;;;;;;9.51;76.21;99515.97;5018507;28;20241;-68
2023/01/15 08:09:51;;;;;;;0.20;0.20;;;;;;;9.54;75.87;99530.72;5020078;28;20201;-68
2023/01/15 08:15:15;;;;;;;0.10;0.10;;;;;;;9.55;75.19;99527.06;5022795;28;20737;-67
2023/01/15 08:17:44;;;;;;;1.03;0.10;;;;;;;9.53;75.16;99534.34;5021527;28;20240;-68
2023/01/15 08:20:14;;;;;;;0.30;0.20;;;;;;;9.38;75.36;99535.00;5022957;28;20311;-67
2023/01/15 08:22:43;;;;;;;0.57;0.27;;;;;;;9.38;75.89;99535.00;5022403;28;20662;-67
2023/01/15 08:25:14;;;;;;;0.10;0.10;;;;;;;9.36;76.30;99538.78;5019034;28;20217;-66
2023/01/15 08:27:42;;;;;;;1.40;0.20;;;;;;;9.38;76.42;99536.81;5021858;28;20220;-67
2023/01/15 08:30:13;;;;;;;0.33;0.20;;;;;;;9.40;75.44;99540.97;5023032;28;20220;-67
2023/01/15 08:32:40;;;;;;;0.40;0.20;;;;;;;9.40;75.45;99540.13;5026227;28;20205;-67
2023/01/15 08:35:09;;;;;;;0.47;0.20;;;;;;;9.34;75.51;99538.94;5025832;28;20212;-68
2023/01/15 08:37:37;;;;;;;0.47;0.20;;;;;;;9.37;75.60;99545.75;5024230;28;20552;-68
2023/01/15 08:40:06;;;;;;;0.70;0.30;;;;;;;9.35;75.02;99553.00;5025733;28;20252;-67
2023/01/15 08:42:35;;;;;;;0.57;0.20;;;;;;;9.32;75.05;99551.50;5026635;28;20232;-68
2023/01/15 08:45:03;;;;;;;0.43;0.20;;;;;;;9.34;75.11;99551.34;5027508;28;20213;-69
2023/01/15 08:47:31;;;;;;;0.50;0.20;;;;;;;9.28;75.41;99563.41;5026177;28;20212;-69
2023/01/15 08:49:59;;;;;;;0.33;0.20;;;;;;;9.29;75.81;99567.72;5029893;28;20698;-67
2023/01/15 08:52:27;;;;;;;0.67;0.30;;;;;;;9.22;75.45;99579.94;5029113;28;20196;-68
2023/01/15 08:54:54;;;;;;;1.00;0.37;;;;;;;9.21;76.04;99594.16;5030687;28;20654;-69
2023/01/15 08:57:22;;;;;;;1.30;0.27;;;;;;;9.25;75.82;99595.47;5026966;28;20218;-68
2023/01/15 08:59:51;;;;;;;0.70;0.20;;;;;;;9.28;76.10;99594.34;5026027;28;20324;-69
2023/01/15 09:02:19;;;;;;;0.33;0.20;;;;;;;9.26;76.35;99591.00;5025004;28;20251;-70
2023/01/15 09:04:47;;;;;;;0.70;0.30;;;;;;;9.31;76.34;99600.16;5028302;28;20238;-69
2023/01/15 09:07:15;;;;;;;0.67;0.30;;;;;;;9.29;75.76;99609.22;5024375;28;20243;-67
2023/01/15 09:09:43;;;;;;;0.67;0.30;;;;;;;9.28;76.27;99610.22;5022261;28;20208;-67
2023/01/15 09:12:11;;;;;;;0.43;0.20;;;;;;;9.31;76.82;99601.97;5022599;28;20215;-67
2023/01/15 09:14:38;;;;;;;1.87;0.53;;;;;;;9.34;77.03;99599.81;5023113;28;20208;-66
2023/01/15 09:17:28;;;;;;;1.27;0.50;;;;;;;9.33;76.93;99616.66;5020635;28;20217;-68
2023/01/15 09:19:55;;;;;;;2.70;1.00;;;;;;;9.38;77.10;99613.56;5019946;28;20329;-68
2023/01/15 09:22:24;;;;;;;4.80;1.60;;;;;;;9.32;76.71;99604.41;5020123;28;20697;-68
2023/01/15 09:24:51;;;;;;;11.90;4.67;;;;;;;9.34;77.33;99599.81;5021158;28;20209;-68
2023/01/15 09:27:19;;;;;;;6.40;2.07;;;;;;;9.22;77.76;99594.97;5021911;28;20208;-68
2023/01/15 09:29:47;;;;;;;2.57;0.90;;;;;;;9.18;76.45;99606.88;5024597;28;20242;-68
2023/01/15 09:32:15;;;;;;;4.07;0.90;;;;;;;9.18;76.54;99610.34;5027567;28;20324;-68
2023/01/15 09:34:44;;;;;;;2.23;0.60;;;;;;;9.19;76.70;99621.75;5029281;28;20208;-69
2023/01/15 09:37:12;;;;;;;1.97;0.60;;;;;;;9.23;76.24;99621.28;5024777;28;20303;-68
2023/01/15 09:39:40;;;;;;;4.93;0.70;;;;;;;9.28;75.38;99626.91;5022838;28;20209;-68
2023/01/15 09:42:20;;;;;;;1.53;0.40;;;;;;;9.25;74.60;99632.50;5024296;28;20313;-68
2023/01/15 09:45:06;;;;;;;1.53;0.50;;;;;;;9.28;74.18;99647.25;5025681;28;20217;-69
2023/01/15 09:47:39;;;;;;;4.30;0.50;;;;;;;9.37;73.71;99657.69;5022876;28;20211;-67
2023/01/15 09:50:23;;;;;;;2.30;0.60;;;;;;;9.36;73.56;99690.44;5022699;28;20812;-69
2023/01/15 09:53:10;;;;;;;4.57;0.73;;;;;;;9.38;74.01;99701.69;5021063;28;20287;-70
2023/01/15 09:55:45;;;;;;;5.83;0.90;;;;;;;9.43;74.89;99699.38;5024467;28;20999;-68
2023/01/15 09:58:15;;;;;;;3.40;0.77;;;;;;;9.36;75.02;99697.53;5021240;28;20227;-68
2023/01/15 10:00:45;;;;;;;2.97;0.60;;;;;;;9.38;74.27;99709.63;5022919;28;20208;-68
2023/01/15 10:03:25;;;;;;;6.87;0.50;;;;;;;9.40;73.00;99712.94;5024852;28;20311;-69
2023/01/15 10:06:05;;;;;;;2.37;0.67;;;;;;;9.38;73.54;99712.28;5023264;28;20212;-69
2023/01/15 10:08:38;;;;;;;1.57;0.60;;;;;;;9.34;73.82;99710.09;5024774;28;21029;-69
2023/01/15 10:11:22;;;;;;;2.97;1.17;;;;;;;9.21;73.42;99721.13;5020342;28;20218;-69
2023/01/15 10:13:55;;;;;;;2.40;0.40;;;;;;;9.09;72.69;99721.53;5025544;28;20707;-67
2023/01/15 10:16:26;;;;;;;1.93;0.30;;;;;;;9.04;72.65;99728.13;5024841;28;20216;-66
2023/01/15 10:18:56;;;;;;;1.23;0.40;;;;;;;9.09;70.76;99732.13;5021675;28;20657;-68
2023/01/15 10:21:36;;;;;;;1.40;0.30;;;;;;;9.11;69.73;99735.44;5022163;28;20219;-67
2023/01/15 10:24:13;;;;;;;1.67;0.50;;;;;;;9.03;69.48;99746.81;5022550;28;20227;-69
2023/01/15 10:26:49;;;;;;;2.93;0.63;;;;;;;9.09;69.38;99742.69;5007796;28;20216;-68
2023/01/15 10:29:23;;;;;;;0.70;0.30;;;;;;;9.10;69.33;99739.06;5019676;28;20315;-67
2023/01/15 10:31:52;;;;;;;3.03;0.67;;;;;;;9.16;69.17;99744.56;5022623;28;20216;-68
2023/01/15 10:35:03;;;;;;;0.80;0.40;;;;;;;9.12;69.48;99751.16;5019186;28;20335;-67
2023/01/15 10:37:40;;;;;;;2.63;0.60;;;;;;;9.10;70.17;99750.47;5021133;28;20275;-68
2023/01/15 10:40:32;;;;;;;2.03;0.27;;;;;;;9.09;70.39;99748.81;5022117;28;20218;-68
2023/01/15 10:43:05;;;;;;;1.47;0.20;;;;;;;9.15;69.82;99755.31;5011107;28;20236;-68
2023/01/15 10:45:37;;;;;;;0.23;0.10;;;;;;;9.13;69.38;99754.63;5027496;28;20192;-68
2023/01/15 10:48:10;;;;;;;0.67;0.17;;;;;;;9.14;69.41;99757.13;5025253;28;20221;-68
2023/01/15 10:50:38;;;;;;;1.43;0.30;;;;;;;9.01;68.47;99757.53;5025741;28;20216;-68
2023/01/15 10:53:14;;;;;;;0.10;0.10;;;;;;;8.88;69.01;99761.59;5024019;28;20211;-68
2023/01/15 10:55:45;;;;;;;1.03;0.30;;;;;;;8.91;69.55;99764.72;5027485;28;20315;-68
2023/01/15 10:58:25;;;;;;;1.60;0.30;;;;;;;8.96;69.77;99759.00;5028346;28;20220;-68
2023/01/15 11:00:58;;;;;;;0.67;0.10;;;;;;;8.92;69.27;99765.56;5030670;28;20204;-68
2023/01/15 11:03:35;;;;;;;0.23;0.20;;;;;;;8.85;68.93;99767.16;5028022;28;20653;-68
2023/01/15 11:06:04;;;;;;;0.30;0.20;;;;;;;8.95;68.79;99767.91;5023854;28;20203;-68
2023/01/15 11:08:34;;;;;;;2.53;0.40;;;;;;;8.97;69.13;99768.59;5024604;28;20363;-69
2023/01/15 11:20:15;;;;;;;1.90;0.20;;;;;;;8.30;66.66;99783.16;5023493;28;20208;-69
2023/01/15 11:22:44;;;;;;;0.77;0.30;;;;;;;8.25;67.73;99786.28;5022077;28;20206;-69
2023/01/15 11:25:14;;;;;;;0.30;0.20;;;;;;;8.33;67.55;99782.91;5021625;28;20219;-69
2023/01/15 11:27:42;;;;;;;2.60;0.20;;;;;;;8.37;67.78;99786.91;5022028;28;20220;-68
2023/01/15 11:30:27;;;;;;;1.27;0.20;;;;;;;8.35;68.39;99783.59;5021910;28;20211;-69
2023/01/15 11:32:57;;;;;;;0.67;0.40;;;;;;;8.31;68.65;99755.81;5023392;28;20208;-68
2023/01/15 11:35:26;;;;;;;1.80;0.30;;;;;;;8.42;69.39;99749.47;5023692;28;20226;-70
2023/01/15 11:38:07;;;;;;;0.80;0.40;;;;;;;8.50;69.45;99737.16;5019084;28;20235;-70
2023/01/15 11:40:36;;;;;;;1.97;0.43;;;;;;;8.64;68.63;99744.53;5020948;28;20203;-69
2023/01/15 11:51:41;;;;;;;0.67;0.20;;;;;;;8.20;67.05;99756.00;5020148;28;20216;-69
2023/01/15 11:54:12;;;;;;;0.40;0.17;;;;;;;8.13;67.46;99754.94;5022366;28;20224;-70
2023/01/15 11:56:45;;;;;;;1.63;0.20;;;;;;;8.16;67.92;99738.81;5028037;28;20232;-71
2023/01/15 11:59:16;;;;;;;2.63;0.47;;;;;;;8.20;68.36;99729.56;5027929;28;20231;-69
2023/01/15 12:01:53;;;;;;;1.57;0.70;;;;;;;8.26;67.18;99713.97;5025945;28;20219;-69
2023/01/15 12:04:29;;;;;;;1.33;0.30;;;;;;;8.41;67.08;99714.28;5027087;28;20236;-69
2023/01/15 12:06:58;;;;;;;0.63;0.40;;;;;;;8.41;66.53;99716.94;5028220;28;20771;-70
2023/01/15 12:09:36;;;;;;;1.80;0.60;;;;;;;8.50;66.78;99702.81;5022483;28;20736;-69
2023/01/15 12:12:15;;;;;;;2.78;0.73;;;;;;;8.78;66.64;99707.97;5026020;28;21044;-64
2023/01/15 12:15:08;;;;;;;1.73;0.70;;;;;;;8.81;66.44;99697.06;5023607;28;20211;-64
2023/01/15 12:17:54;;;;;;;1.80;0.40;;;;;;;8.73;66.36;99699.66;5022262;28;20319;-64
2023/01/15 12:20:27;;;;;;;1.90;0.43;;;;;;;8.76;67.25;99705.47;5024344;28;20296;-64
2023/01/15 12:23:23;;;;;;;1.83;0.67;;;;;;;8.82;66.92;99698.72;5022568;28;20673;-63
2023/01/15 12:26:02;;;;;;;2.83;0.50;;;;;;;8.87;67.01;99707.03;5022874;28;20208;-64
2023/01/15 12:28:36;;;;;;;0.93;0.30;;;;;;;8.86;67.33;99697.44;5023794;28;20647;-70
2023/01/15 12:31:11;;;;;;;1.77;0.60;;;;;;;8.99;66.30;99711.91;5021551;28;20451;-64
2023/01/15 12:33:45;;;;;;;1.03;0.40;;;;;;;8.70;67.46;99713.19;5021372;28;20347;-66